sensor_id;sensor_type;location;lat;lon;timestamp;P1;durP1;ratioP1;P2;durP2;ratioP2
24090;SDS011;12272;52.426;17.100;2022-12-18T00:00:43;35.23;;;15.80;;
24090;SDS011;12272;52.426;17.100;2022-12-18T00:05:49;28.20;;;12.63;;
24090;SDS011;12272;52.426;17.100;2022-12-18T00:10:52;44.67;;;24.03;;
24090;SDS011;12272;52.426;17.100;2022-12-18T00:16:05;37.47;;;19.50;;
24090;SDS011;12272;52.426;17.100;2022-12-18T00:21:10;25.27;;;15.20;;
24090;SDS011;12272;52.426;17.100;2022-12-18T00:26:15;42.60;;;22.07;;
24090;SDS011;12272;52.426;17.100;2022-12-18T00:31:24;47.57;;;23.90;;
24090;SDS011;12272;52.426;17.100;2022-12-18T00:36:29;31.63;;;16.17;;
24090;SDS011;12272;52.426;17.100;2022-12-18T00:41:35;20.47;;;11.03;;
24090;SDS011;12272;52.426;17.100;2022-12-18T00:46:56;35.57;;;17.03;;
24090;SDS011;12272;52.426;17.100;2022-12-18T00:51:58;48.37;;;22.67;;
24090;SDS011;12272;52.426;17.100;2022-12-18T00:57:02;36.53;;;18.23;;
24090;SDS011;12272;52.426;17.100;2022-12-18T01:02:04;31.07;;;16.43;;
24090;SDS011;12272;52.426;17.100;2022-12-18T01:07:08;33.00;;;17.43;;
24090;SDS011;12272;52.426;17.100;2022-12-18T01:12:10;27.57;;;13.90;;
24090;SDS011;12272;52.426;17.100;2022-12-18T01:17:13;33.20;;;16.83;;
24090;SDS011;12272;52.426;17.100;2022-12-18T01:22:16;44.03;;;23.13;;
24090;SDS011;12272;52.426;17.100;2022-12-18T01:27:19;36.27;;;18.70;;
24090;SDS011;12272;52.426;17.100;2022-12-18T01:32:21;37.50;;;17.73;;
24090;SDS011;12272;52.426;17.100;2022-12-18T01:37:24;32.13;;;15.37;;
24090;SDS011;12272;52.426;17.100;2022-12-18T01:42:26;45.57;;;22.20;;
24090;SDS011;12272;52.426;17.100;2022-12-18T01:52:42;34.17;;;17.63;;
24090;SDS011;12272;52.426;17.100;2022-12-18T01:57:46;37.63;;;17.57;;
24090;SDS011;12272;52.426;17.100;2022-12-18T02:02:49;40.37;;;19.50;;
24090;SDS011;12272;52.426;17.100;2022-12-18T02:13:23;35.07;;;16.30;;
24090;SDS011;12272;52.426;17.100;2022-12-18T02:18:41;50.40;;;23.50;;
24090;SDS011;12272;52.426;17.100;2022-12-18T02:29:18;48.37;;;22.53;;
24090;SDS011;12272;52.426;17.100;2022-12-18T02:34:26;53.07;;;25.30;;
24090;SDS011;12272;52.426;17.100;2022-12-18T02:39:32;35.50;;;16.73;;
24090;SDS011;12272;52.426;17.100;2022-12-18T02:44:42;26.80;;;14.53;;
24090;SDS011;12272;52.426;17.100;2022-12-18T03:00:08;28.67;;;15.13;;
24090;SDS011;12272;52.426;17.100;2022-12-18T03:10:34;31.93;;;16.40;;
24090;SDS011;12272;52.426;17.100;2022-12-18T03:15:42;28.30;;;13.23;;
24090;SDS011;12272;52.426;17.100;2022-12-18T03:20:49;39.77;;;19.17;;
24090;SDS011;12272;52.426;17.100;2022-12-18T03:25:57;43.27;;;20.43;;
24090;SDS011;12272;52.426;17.100;2022-12-18T03:31:11;45.43;;;21.70;;
24090;SDS011;12272;52.426;17.100;2022-12-18T03:36:16;33.43;;;16.33;;
24090;SDS011;12272;52.426;17.100;2022-12-18T03:57:44;52.77;;;26.07;;
24090;SDS011;12272;52.426;17.100;2022-12-18T04:02:52;46.23;;;22.50;;
24090;SDS011;12272;52.426;17.100;2022-12-18T04:08:04;31.30;;;16.33;;
24090;SDS011;12272;52.426;17.100;2022-12-18T04:13:11;46.67;;;20.80;;
24090;SDS011;12272;52.426;17.100;2022-12-18T04:18:14;50.27;;;22.77;;
24090;SDS011;12272;52.426;17.100;2022-12-18T04:23:18;42.97;;;20.00;;
24090;SDS011;12272;52.426;17.100;2022-12-18T04:28:21;62.37;;;28.07;;
24090;SDS011;12272;52.426;17.100;2022-12-18T04:33:24;59.17;;;29.37;;
24090;SDS011;12272;52.426;17.100;2022-12-18T04:38:26;55.87;;;26.43;;
24090;SDS011;12272;52.426;17.100;2022-12-18T04:43:37;53.47;;;26.33;;
24090;SDS011;12272;52.426;17.100;2022-12-18T04:48:41;38.03;;;20.13;;
24090;SDS011;12272;52.426;17.100;2022-12-18T04:53:46;47.97;;;22.23;;
24090;SDS011;12272;52.426;17.100;2022-12-18T04:58:49;36.93;;;17.50;;
24090;SDS011;12272;52.426;17.100;2022-12-18T05:03:51;31.77;;;14.87;;
24090;SDS011;12272;52.426;17.100;2022-12-18T05:08:54;52.83;;;27.03;;
24090;SDS011;12272;52.426;17.100;2022-12-18T05:13:56;50.73;;;24.63;;
24090;SDS011;12272;52.426;17.100;2022-12-18T05:19:02;54.20;;;24.43;;
24090;SDS011;12272;52.426;17.100;2022-12-18T05:24:04;50.47;;;24.80;;
24090;SDS011;12272;52.426;17.100;2022-12-18T05:29:10;24.17;;;12.07;;
24090;SDS011;12272;52.426;17.100;2022-12-18T05:34:14;26.87;;;13.17;;
24090;SDS011;12272;52.426;17.100;2022-12-18T05:39:17;43.97;;;19.70;;
24090;SDS011;12272;52.426;17.100;2022-12-18T05:44:19;55.47;;;26.40;;
24090;SDS011;12272;52.426;17.100;2022-12-18T05:49:22;47.77;;;23.73;;
24090;SDS011;12272;52.426;17.100;2022-12-18T05:54:26;43.90;;;19.20;;
24090;SDS011;12272;52.426;17.100;2022-12-18T05:59:29;39.03;;;18.03;;
24090;SDS011;12272;52.426;17.100;2022-12-18T06:04:32;50.33;;;24.73;;
24090;SDS011;12272;52.426;17.100;2022-12-18T06:09:34;51.00;;;26.60;;
24090;SDS011;12272;52.426;17.100;2022-12-18T06:14:37;25.20;;;13.20;;
24090;SDS011;12272;52.426;17.100;2022-12-18T06:19:39;26.57;;;13.53;;
24090;SDS011;12272;52.426;17.100;2022-12-18T06:24:42;28.67;;;12.73;;
24090;SDS011;12272;52.426;17.100;2022-12-18T06:29:44;47.43;;;23.13;;
24090;SDS011;12272;52.426;17.100;2022-12-18T06:34:47;48.90;;;23.13;;
24090;SDS011;12272;52.426;17.100;2022-12-18T06:39:49;51.57;;;24.20;;
24090;SDS011;12272;52.426;17.100;2022-12-18T06:44:52;37.03;;;18.57;;
24090;SDS011;12272;52.426;17.100;2022-12-18T06:49:54;47.97;;;23.60;;
24090;SDS011;12272;52.426;17.100;2022-12-18T06:54:56;37.07;;;19.03;;
24090;SDS011;12272;52.426;17.100;2022-12-18T06:59:59;26.97;;;14.40;;
24090;SDS011;12272;52.426;17.100;2022-12-18T07:05:01;33.10;;;16.83;;
24090;SDS011;12272;52.426;17.100;2022-12-18T07:10:11;46.20;;;21.03;;
24090;SDS011;12272;52.426;17.100;2022-12-18T07:15:13;36.07;;;16.80;;
24090;SDS011;12272;52.426;17.100;2022-12-18T07:20:16;48.60;;;20.93;;
24090;SDS011;12272;52.426;17.100;2022-12-18T07:25:18;53.83;;;26.10;;
24090;SDS011;12272;52.426;17.100;2022-12-18T07:30:21;58.60;;;27.40;;
24090;SDS011;12272;52.426;17.100;2022-12-18T07:35:23;63.20;;;29.07;;
24090;SDS011;12272;52.426;17.100;2022-12-18T07:40:26;68.10;;;29.77;;
24090;SDS011;12272;52.426;17.100;2022-12-18T07:45:28;68.10;;;28.37;;
24090;SDS011;12272;52.426;17.100;2022-12-18T07:50:31;64.80;;;29.47;;
24090;SDS011;12272;52.426;17.100;2022-12-18T07:55:33;50.67;;;20.80;;
24090;SDS011;12272;52.426;17.100;2022-12-18T08:01:05;37.83;;;19.23;;
24090;SDS011;12272;52.426;17.100;2022-12-18T08:06:09;78.63;;;35.47;;
24090;SDS011;12272;52.426;17.100;2022-12-18T08:11:12;53.33;;;23.90;;
24090;SDS011;12272;52.426;17.100;2022-12-18T08:16:14;47.90;;;21.50;;
24090;SDS011;12272;52.426;17.100;2022-12-18T08:21:18;23.57;;;12.90;;
24090;SDS011;12272;52.426;17.100;2022-12-18T08:26:25;32.63;;;14.40;;
24090;SDS011;12272;52.426;17.100;2022-12-18T08:31:29;45.80;;;21.40;;
24090;SDS011;12272;52.426;17.100;2022-12-18T08:36:32;40.13;;;20.03;;
24090;SDS011;12272;52.426;17.100;2022-12-18T08:41:35;67.33;;;30.47;;
24090;SDS011;12272;52.426;17.100;2022-12-18T08:46:38;64.60;;;28.80;;
24090;SDS011;12272;52.426;17.100;2022-12-18T08:51:42;32.03;;;15.40;;
24090;SDS011;12272;52.426;17.100;2022-12-18T08:56:44;66.90;;;29.00;;
24090;SDS011;12272;52.426;17.100;2022-12-18T09:01:47;53.87;;;26.00;;
24090;SDS011;12272;52.426;17.100;2022-12-18T09:06:50;58.43;;;27.70;;
24090;SDS011;12272;52.426;17.100;2022-12-18T09:11:55;49.63;;;24.00;;
24090;SDS011;12272;52.426;17.100;2022-12-18T09:16:57;48.87;;;22.93;;
24090;SDS011;12272;52.426;17.100;2022-12-18T09:22:00;44.40;;;22.70;;
24090;SDS011;12272;52.426;17.100;2022-12-18T09:27:05;42.63;;;20.60;;
24090;SDS011;12272;52.426;17.100;2022-12-18T09:32:08;42.73;;;20.63;;
24090;SDS011;12272;52.426;17.100;2022-12-18T09:37:10;51.13;;;23.23;;
24090;SDS011;12272;52.426;17.100;2022-12-18T09:42:17;46.27;;;21.77;;
24090;SDS011;12272;52.426;17.100;2022-12-18T09:57:47;45.57;;;22.40;;
24090;SDS011;12272;52.426;17.100;2022-12-18T10:03:08;45.37;;;19.50;;
24090;SDS011;12272;52.426;17.100;2022-12-18T10:13:29;37.60;;;17.70;;
24090;SDS011;12272;52.426;17.100;2022-12-18T10:24:01;49.83;;;23.53;;
24090;SDS011;12272;52.426;17.100;2022-12-18T10:29:24;29.83;;;15.83;;
24090;SDS011;12272;52.426;17.100;2022-12-18T10:34:27;43.57;;;20.30;;
24090;SDS011;12272;52.426;17.100;2022-12-18T10:39:30;42.90;;;21.43;;
24090;SDS011;12272;52.426;17.100;2022-12-18T10:44:32;44.67;;;20.07;;
24090;SDS011;12272;52.426;17.100;2022-12-18T10:49:35;48.30;;;24.30;;
24090;SDS011;12272;52.426;17.100;2022-12-18T10:54:38;52.57;;;23.40;;
24090;SDS011;12272;52.426;17.100;2022-12-18T10:59:49;47.60;;;24.77;;
24090;SDS011;12272;52.426;17.100;2022-12-18T11:04:53;35.70;;;19.67;;
24090;SDS011;12272;52.426;17.100;2022-12-18T11:10:00;40.70;;;21.97;;
24090;SDS011;12272;52.426;17.100;2022-12-18T11:15:02;58.00;;;29.47;;
24090;SDS011;12272;52.426;17.100;2022-12-18T11:20:07;50.77;;;27.37;;
24090;SDS011;12272;52.426;17.100;2022-12-18T11:25:33;49.33;;;25.97;;
24090;SDS011;12272;52.426;17.100;2022-12-18T11:30:37;46.30;;;23.80;;
24090;SDS011;12272;52.426;17.100;2022-12-18T11:40:46;41.53;;;23.23;;
24090;SDS011;12272;52.426;17.100;2022-12-18T11:45:54;44.07;;;24.27;;
24090;SDS011;12272;52.426;17.100;2022-12-18T11:51:12;38.73;;;22.17;;
24090;SDS011;12272;52.426;17.100;2022-12-18T11:56:31;36.40;;;21.43;;
24090;SDS011;12272;52.426;17.100;2022-12-18T12:02:00;47.63;;;31.50;;
24090;SDS011;12272;52.426;17.100;2022-12-18T12:29:15;45.93;;;26.47;;
24090;SDS011;12272;52.426;17.100;2022-12-18T12:39:46;49.27;;;27.47;;
24090;SDS011;12272;52.426;17.100;2022-12-18T12:44:51;53.20;;;29.60;;
24090;SDS011;12272;52.426;17.100;2022-12-18T12:50:01;51.60;;;29.03;;
24090;SDS011;12272;52.426;17.100;2022-12-18T12:55:13;47.20;;;27.20;;
24090;SDS011;12272;52.426;17.100;2022-12-18T13:00:23;50.67;;;27.00;;
24090;SDS011;12272;52.426;17.100;2022-12-18T13:10:43;42.93;;;24.40;;
24090;SDS011;12272;52.426;17.100;2022-12-18T13:15:47;53.40;;;31.07;;
24090;SDS011;12272;52.426;17.100;2022-12-18T13:21:01;52.10;;;30.43;;
24090;SDS011;12272;52.426;17.100;2022-12-18T13:31:14;48.93;;;27.40;;
24090;SDS011;12272;52.426;17.100;2022-12-18T13:36:35;49.70;;;25.57;;
24090;SDS011;12272;52.426;17.100;2022-12-18T13:41:38;45.87;;;22.47;;
24090;SDS011;12272;52.426;17.100;2022-12-18T13:46:44;43.20;;;22.97;;
24090;SDS011;12272;52.426;17.100;2022-12-18T13:51:52;47.73;;;21.50;;
24090;SDS011;12272;52.426;17.100;2022-12-18T13:56:56;39.37;;;19.80;;
24090;SDS011;12272;52.426;17.100;2022-12-18T14:02:15;43.53;;;22.77;;
24090;SDS011;12272;52.426;17.100;2022-12-18T14:07:24;39.43;;;23.40;;
24090;SDS011;12272;52.426;17.100;2022-12-18T14:12:31;37.87;;;18.73;;
24090;SDS011;12272;52.426;17.100;2022-12-18T14:17:58;41.57;;;23.77;;
24090;SDS011;12272;52.426;17.100;2022-12-18T14:23:31;57.90;;;32.50;;
24090;SDS011;12272;52.426;17.100;2022-12-18T14:28:42;60.33;;;34.47;;
24090;SDS011;12272;52.426;17.100;2022-12-18T14:33:45;43.50;;;24.90;;
24090;SDS011;12272;52.426;17.100;2022-12-18T14:38:49;53.30;;;34.90;;
24090;SDS011;12272;52.426;17.100;2022-12-18T14:43:53;56.40;;;25.53;;
24090;SDS011;12272;52.426;17.100;2022-12-18T14:48:56;56.53;;;25.87;;
24090;SDS011;12272;52.426;17.100;2022-12-18T14:54:00;40.77;;;20.93;;
24090;SDS011;12272;52.426;17.100;2022-12-18T14:59:04;45.27;;;25.67;;
24090;SDS011;12272;52.426;17.100;2022-12-18T15:09:38;44.63;;;25.00;;
24090;SDS011;12272;52.426;17.100;2022-12-18T15:14:41;76.63;;;40.93;;
24090;SDS011;12272;52.426;17.100;2022-12-18T15:19:44;54.37;;;26.47;;
24090;SDS011;12272;52.426;17.100;2022-12-18T15:24:48;49.97;;;26.83;;
24090;SDS011;12272;52.426;17.100;2022-12-18T15:29:59;44.97;;;21.47;;
24090;SDS011;12272;52.426;17.100;2022-12-18T15:35:19;34.53;;;19.27;;
24090;SDS011;12272;52.426;17.100;2022-12-18T15:40:25;45.90;;;27.03;;
24090;SDS011;12272;52.426;17.100;2022-12-18T15:45:28;45.37;;;25.83;;
24090;SDS011;12272;52.426;17.100;2022-12-18T15:50:31;50.23;;;27.97;;
24090;SDS011;12272;52.426;17.100;2022-12-18T15:55:33;46.20;;;29.13;;
24090;SDS011;12272;52.426;17.100;2022-12-18T16:01:01;51.30;;;31.30;;
24090;SDS011;12272;52.426;17.100;2022-12-18T16:06:04;50.40;;;27.10;;
24090;SDS011;12272;52.426;17.100;2022-12-18T16:11:11;49.50;;;26.10;;
24090;SDS011;12272;52.426;17.100;2022-12-18T16:16:39;42.07;;;22.50;;
24090;SDS011;12272;52.426;17.100;2022-12-18T16:21:42;42.87;;;22.93;;
24090;SDS011;12272;52.426;17.100;2022-12-18T16:26:45;75.20;;;34.00;;
24090;SDS011;12272;52.426;17.100;2022-12-18T16:31:47;53.27;;;27.37;;
24090;SDS011;12272;52.426;17.100;2022-12-18T16:36:50;55.97;;;20.07;;
24090;SDS011;12272;52.426;17.100;2022-12-18T16:41:53;86.17;;;51.03;;
24090;SDS011;12272;52.426;17.100;2022-12-18T16:46:56;29.87;;;14.40;;
24090;SDS011;12272;52.426;17.100;2022-12-18T16:52:04;92.57;;;49.20;;
24090;SDS011;12272;52.426;17.100;2022-12-18T16:57:08;128.53;;;71.03;;
24090;SDS011;12272;52.426;17.100;2022-12-18T17:02:12;100.93;;;56.27;;
24090;SDS011;12272;52.426;17.100;2022-12-18T17:07:18;133.70;;;66.77;;
24090;SDS011;12272;52.426;17.100;2022-12-18T17:12:21;104.07;;;55.67;;
24090;SDS011;12272;52.426;17.100;2022-12-18T17:17:24;95.47;;;46.73;;
24090;SDS011;12272;52.426;17.100;2022-12-18T17:22:26;110.03;;;51.77;;
24090;SDS011;12272;52.426;17.100;2022-12-18T17:27:29;104.70;;;51.30;;
24090;SDS011;12272;52.426;17.100;2022-12-18T17:32:31;115.73;;;55.90;;
24090;SDS011;12272;52.426;17.100;2022-12-18T17:37:34;123.57;;;60.47;;
24090;SDS011;12272;52.426;17.100;2022-12-18T17:42:36;122.73;;;57.27;;
24090;SDS011;12272;52.426;17.100;2022-12-18T17:47:38;45.53;;;20.03;;
24090;SDS011;12272;52.426;17.100;2022-12-18T17:52:41;83.83;;;37.30;;
24090;SDS011;12272;52.426;17.100;2022-12-18T17:57:44;62.00;;;28.33;;
24090;SDS011;12272;52.426;17.100;2022-12-18T18:02:46;71.57;;;33.13;;
24090;SDS011;12272;52.426;17.100;2022-12-18T18:07:49;80.83;;;33.47;;
24090;SDS011;12272;52.426;17.100;2022-12-18T18:12:53;79.87;;;39.13;;
24090;SDS011;12272;52.426;17.100;2022-12-18T18:18:14;55.57;;;26.63;;
24090;SDS011;12272;52.426;17.100;2022-12-18T18:23:18;73.00;;;37.50;;
24090;SDS011;12272;52.426;17.100;2022-12-18T18:28:24;57.83;;;28.20;;
24090;SDS011;12272;52.426;17.100;2022-12-18T18:33:26;40.00;;;19.73;;
24090;SDS011;12272;52.426;17.100;2022-12-18T18:38:28;56.60;;;26.83;;
24090;SDS011;12272;52.426;17.100;2022-12-18T18:43:31;65.20;;;35.50;;
24090;SDS011;12272;52.426;17.100;2022-12-18T18:48:35;48.43;;;24.97;;
24090;SDS011;12272;52.426;17.100;2022-12-18T18:53:40;93.27;;;49.87;;
24090;SDS011;12272;52.426;17.100;2022-12-18T18:58:45;99.47;;;47.00;;
24090;SDS011;12272;52.426;17.100;2022-12-18T19:03:47;109.17;;;56.43;;
24090;SDS011;12272;52.426;17.100;2022-12-18T19:08:51;112.77;;;56.87;;
24090;SDS011;12272;52.426;17.100;2022-12-18T19:13:54;116.33;;;59.23;;
24090;SDS011;12272;52.426;17.100;2022-12-18T19:18:59;126.30;;;69.32;;
24090;SDS011;12272;52.426;17.100;2022-12-18T19:24:04;134.02;;;61.90;;
24090;SDS011;12272;52.426;17.100;2022-12-18T19:29:07;125.90;;;61.63;;
24090;SDS011;12272;52.426;17.100;2022-12-18T19:34:11;113.40;;;51.63;;
24090;SDS011;12272;52.426;17.100;2022-12-18T19:39:15;87.33;;;40.67;;
24090;SDS011;12272;52.426;17.100;2022-12-18T19:44:20;44.37;;;16.73;;
24090;SDS011;12272;52.426;17.100;2022-12-18T19:49:22;86.40;;;40.17;;
24090;SDS011;12272;52.426;17.100;2022-12-18T19:54:24;62.53;;;25.97;;
24090;SDS011;12272;52.426;17.100;2022-12-18T19:59:27;78.68;;;42.78;;
24090;SDS011;12272;52.426;17.100;2022-12-18T20:04:29;83.07;;;41.70;;
24090;SDS011;12272;52.426;17.100;2022-12-18T20:09:33;97.53;;;49.83;;
24090;SDS011;12272;52.426;17.100;2022-12-18T20:14:37;98.17;;;48.50;;
24090;SDS011;12272;52.426;17.100;2022-12-18T20:19:40;97.90;;;47.17;;
24090;SDS011;12272;52.426;17.100;2022-12-18T20:24:45;114.07;;;58.70;;
24090;SDS011;12272;52.426;17.100;2022-12-18T20:29:50;109.00;;;51.63;;
24090;SDS011;12272;52.426;17.100;2022-12-18T20:34:52;110.70;;;50.33;;
24090;SDS011;12272;52.426;17.100;2022-12-18T20:39:56;114.87;;;51.50;;
24090;SDS011;12272;52.426;17.100;2022-12-18T20:44:59;112.65;;;56.00;;
24090;SDS011;12272;52.426;17.100;2022-12-18T20:50:01;118.80;;;58.77;;
24090;SDS011;12272;52.426;17.100;2022-12-18T20:55:05;122.80;;;59.00;;
24090;SDS011;12272;52.426;17.100;2022-12-18T21:00:08;132.83;;;59.07;;
24090;SDS011;12272;52.426;17.100;2022-12-18T21:05:13;132.30;;;64.13;;
24090;SDS011;12272;52.426;17.100;2022-12-18T21:10:15;116.20;;;57.30;;
24090;SDS011;12272;52.426;17.100;2022-12-18T21:15:19;87.87;;;33.80;;
24090;SDS011;12272;52.426;17.100;2022-12-18T21:20:29;110.63;;;53.63;;
24090;SDS011;12272;52.426;17.100;2022-12-18T21:25:32;135.47;;;61.50;;
24090;SDS011;12272;52.426;17.100;2022-12-18T21:30:34;55.23;;;24.40;;
24090;SDS011;12272;52.426;17.100;2022-12-18T21:35:37;75.97;;;28.23;;
24090;SDS011;12272;52.426;17.100;2022-12-18T21:40:39;94.97;;;36.23;;
24090;SDS011;12272;52.426;17.100;2022-12-18T21:45:42;59.13;;;27.40;;
24090;SDS011;12272;52.426;17.100;2022-12-18T21:50:45;62.50;;;27.07;;
24090;SDS011;12272;52.426;17.100;2022-12-18T21:55:55;55.70;;;25.97;;
24090;SDS011;12272;52.426;17.100;2022-12-18T22:00:59;71.37;;;30.77;;
24090;SDS011;12272;52.426;17.100;2022-12-18T22:06:03;53.30;;;24.87;;
24090;SDS011;12272;52.426;17.100;2022-12-18T22:11:10;58.37;;;27.37;;
24090;SDS011;12272;52.426;17.100;2022-12-18T22:16:13;55.13;;;26.87;;
24090;SDS011;12272;52.426;17.100;2022-12-18T22:21:26;47.83;;;23.30;;
24090;SDS011;12272;52.426;17.100;2022-12-18T22:26:32;58.20;;;26.43;;
24090;SDS011;12272;52.426;17.100;2022-12-18T22:31:40;60.53;;;30.57;;
24090;SDS011;12272;52.426;17.100;2022-12-18T22:36:46;74.57;;;37.70;;
24090;SDS011;12272;52.426;17.100;2022-12-18T22:41:49;57.40;;;25.90;;
24090;SDS011;12272;52.426;17.100;2022-12-18T22:46:52;69.33;;;31.67;;
24090;SDS011;12272;52.426;17.100;2022-12-18T22:52:08;46.83;;;21.93;;
24090;SDS011;12272;52.426;17.100;2022-12-18T22:57:10;47.93;;;21.70;;
24090;SDS011;12272;52.426;17.100;2022-12-18T23:02:13;48.27;;;23.77;;
24090;SDS011;12272;52.426;17.100;2022-12-18T23:07:16;64.33;;;31.20;;
24090;SDS011;12272;52.426;17.100;2022-12-18T23:12:18;41.80;;;21.03;;
24090;SDS011;12272;52.426;17.100;2022-12-18T23:17:21;66.93;;;31.53;;
24090;SDS011;12272;52.426;17.100;2022-12-18T23:22:23;45.07;;;21.57;;
24090;SDS011;12272;52.426;17.100;2022-12-18T23:27:26;60.20;;;27.40;;
24090;SDS011;12272;52.426;17.100;2022-12-18T23:32:28;48.13;;;22.87;;
24090;SDS011;12272;52.426;17.100;2022-12-18T23:37:33;71.10;;;33.27;;
24090;SDS011;12272;52.426;17.100;2022-12-18T23:42:57;68.40;;;35.20;;
24090;SDS011;12272;52.426;17.100;2022-12-18T23:48:00;44.50;;;22.50;;
24090;SDS011;12272;52.426;17.100;2022-12-18T23:53:02;72.33;;;37.50;;
24090;SDS011;12272;52.426;17.100;2022-12-18T23:58:07;66.40;;;32.57;;
